sensor_id;sensor_type;location;lat;lon;timestamp;pressure;altitude;pressure_sealevel;temperature;humidity
32933;BME280;19444;50.518;10.870;2022-12-07T00:02:10;96388.38;;;0.08;100.00
32933;BME280;19444;50.518;10.870;2022-12-07T00:05:07;96385.59;;;0.15;100.00
32933;BME280;19444;50.518;10.870;2022-12-07T00:08:04;96387.00;;;0.01;100.00
32933;BME280;19444;50.518;10.870;2022-12-07T00:11:18;96392.41;;;0.11;100.00
32933;BME280;19444;50.518;10.870;2022-12-07T00:14:16;96385.19;;;0.06;100.00
32933;BME280;19444;50.518;10.870;2022-12-07T00:17:13;96386.75;;;0.02;100.00
32933;BME280;19444;50.518;10.870;2022-12-07T00:20:10;96387.94;;;-0.06;100.00
32933;BME280;19444;50.518;10.870;2022-12-07T00:23:07;96364.78;;;-0.04;100.00
32933;BME280;19444;50.518;10.870;2022-12-07T00:26:07;96371.81;;;-0.09;100.00
32933;BME280;19444;50.518;10.870;2022-12-07T00:29:11;96359.78;;;-0.05;100.00
32933;BME280;19444;50.518;10.870;2022-12-07T00:32:09;96375.28;;;-0.09;100.00
32933;BME280;19444;50.518;10.870;2022-12-07T00:35:06;96367.03;;;-0.12;100.00
32933;BME280;19444;50.518;10.870;2022-12-07T00:38:03;96362.41;;;-0.05;100.00
32933;BME280;19444;50.518;10.870;2022-12-07T00:41:18;96351.31;;;-0.07;100.00
32933;BME280;19444;50.518;10.870;2022-12-07T00:44:15;96359.53;;;-0.04;100.00
32933;BME280;19444;50.518;10.870;2022-12-07T00:47:12;96360.03;;;-0.07;100.00
32933;BME280;19444;50.518;10.870;2022-12-07T00:50:09;96358.97;;;-0.06;100.00
32933;BME280;19444;50.518;10.870;2022-12-07T00:53:06;96352.38;;;-0.08;100.00
32933;BME280;19444;50.518;10.870;2022-12-07T00:56:08;96356.19;;;0.01;100.00
32933;BME280;19444;50.518;10.870;2022-12-07T00:59:05;96352.97;;;-0.01;100.00
32933;BME280;19444;50.518;10.870;2022-12-07T01:02:02;96353.28;;;0.03;100.00
32933;BME280;19444;50.518;10.870;2022-12-07T01:04:59;96342.22;;;0.01;100.00
32933;BME280;19444;50.518;10.870;2022-12-07T01:07:56;96347.22;;;0.02;100.00
32933;BME280;19444;50.518;10.870;2022-12-07T01:11:05;96345.25;;;-0.08;100.00
32933;BME280;19444;50.518;10.870;2022-12-07T01:14:03;96341.34;;;-0.05;100.00
32933;BME280;19444;50.518;10.870;2022-12-07T01:17:00;96336.19;;;-0.17;100.00
32933;BME280;19444;50.518;10.870;2022-12-07T01:19:57;96342.53;;;-0.13;100.00
32933;BME280;19444;50.518;10.870;2022-12-07T01:22:54;96340.97;;;-0.14;100.00
32933;BME280;19444;50.518;10.870;2022-12-07T01:25:58;96339.41;;;-0.10;100.00
32933;BME280;19444;50.518;10.870;2022-12-07T01:28:56;96337.53;;;-0.14;100.00
32933;BME280;19444;50.518;10.870;2022-12-07T01:31:55;96335.69;;;-0.14;100.00
32933;BME280;19444;50.518;10.870;2022-12-07T01:34:52;96333.97;;;-0.25;100.00
32933;BME280;19444;50.518;10.870;2022-12-07T01:37:49;96335.97;;;-0.10;100.00
32933;BME280;19444;50.518;10.870;2022-12-07T01:40:55;96323.69;;;-0.26;100.00
32933;BME280;19444;50.518;10.870;2022-12-07T01:44:29;96321.09;;;-0.21;100.00
32933;BME280;19444;50.518;10.870;2022-12-07T01:47:28;96320.59;;;-0.18;100.00
32933;BME280;19444;50.518;10.870;2022-12-07T01:50:27;96327.28;;;-0.11;100.00
32933;BME280;19444;50.518;10.870;2022-12-07T01:53:29;96326.69;;;-0.18;100.00
32933;BME280;19444;50.518;10.870;2022-12-07T01:56:27;96326.19;;;-0.15;100.00
32933;BME280;19444;50.518;10.870;2022-12-07T01:59:26;96319.97;;;-0.09;100.00
32933;BME280;19444;50.518;10.870;2022-12-07T02:02:27;96324.97;;;-0.07;100.00
32933;BME280;19444;50.518;10.870;2022-12-07T02:05:26;96326.56;;;-0.06;100.00
32933;BME280;19444;50.518;10.870;2022-12-07T02:08:24;96322.03;;;-0.11;100.00
32933;BME280;19444;50.518;10.870;2022-12-07T02:11:21;96320.44;;;-0.12;100.00
32933;BME280;19444;50.518;10.870;2022-12-07T02:14:18;96324.41;;;-0.09;100.00
32933;BME280;19444;50.518;10.870;2022-12-07T02:17:51;96308.13;;;-0.06;100.00
32933;BME280;19444;50.518;10.870;2022-12-07T02:24:45;96298.69;;;-0.02;100.00
32933;BME280;19444;50.518;10.870;2022-12-07T02:31:19;96296.97;;;-0.13;100.00
32933;BME280;19444;50.518;10.870;2022-12-07T02:34:55;96296.47;;;-0.10;100.00
32933;BME280;19444;50.518;10.870;2022-12-07T02:38:31;96289.06;;;-0.13;100.00
32933;BME280;19444;50.518;10.870;2022-12-07T02:41:58;96289.38;;;-0.10;100.00
32933;BME280;19444;50.518;10.870;2022-12-07T02:44:53;96288.03;;;-0.12;100.00
32933;BME280;19444;50.518;10.870;2022-12-07T02:47:53;96279.09;;;-0.11;100.00
32933;BME280;19444;50.518;10.870;2022-12-07T02:50:54;96276.69;;;-0.13;100.00
32933;BME280;19444;50.518;10.870;2022-12-07T02:53:51;96286.28;;;-0.07;100.00
32933;BME280;19444;50.518;10.870;2022-12-07T03:00:16;96291.00;;;-0.09;100.00
32933;BME280;19444;50.518;10.870;2022-12-07T03:03:14;96288.09;;;-0.07;100.00
32933;BME280;19444;50.518;10.870;2022-12-07T03:06:36;96287.31;;;-0.08;100.00
32933;BME280;19444;50.518;10.870;2022-12-07T03:10:01;96287.00;;;-0.11;100.00
32933;BME280;19444;50.518;10.870;2022-12-07T03:16:25;96283.13;;;-0.25;100.00
32933;BME280;19444;50.518;10.870;2022-12-07T03:19:24;96279.72;;;-0.26;100.00
32933;BME280;19444;50.518;10.870;2022-12-07T03:22:23;96282.09;;;-0.24;100.00
32933;BME280;19444;50.518;10.870;2022-12-07T03:25:21;96286.25;;;-0.29;100.00
32933;BME280;19444;50.518;10.870;2022-12-07T03:28:22;96278.00;;;-0.15;100.00
32933;BME280;19444;50.518;10.870;2022-12-07T03:31:31;96274.19;;;-0.24;100.00
32933;BME280;19444;50.518;10.870;2022-12-07T03:38:36;96273.16;;;-0.23;100.00
32933;BME280;19444;50.518;10.870;2022-12-07T03:41:35;96265.06;;;-0.17;100.00
32933;BME280;19444;50.518;10.870;2022-12-07T03:44:40;96271.56;;;-0.24;100.00
32933;BME280;19444;50.518;10.870;2022-12-07T03:47:48;96262.13;;;-0.20;100.00
32933;BME280;19444;50.518;10.870;2022-12-07T03:50:54;96259.69;;;-0.27;100.00
32933;BME280;19444;50.518;10.870;2022-12-07T03:54:13;96268.75;;;-0.18;100.00
32933;BME280;19444;50.518;10.870;2022-12-07T03:57:11;96263.50;;;-0.18;100.00
32933;BME280;19444;50.518;10.870;2022-12-07T04:00:11;96254.66;;;-0.29;100.00
32933;BME280;19444;50.518;10.870;2022-12-07T04:03:09;96260.22;;;-0.25;100.00
32933;BME280;19444;50.518;10.870;2022-12-07T04:06:06;96265.81;;;-0.21;100.00
32933;BME280;19444;50.518;10.870;2022-12-07T04:09:03;96261.88;;;-0.19;100.00
32933;BME280;19444;50.518;10.870;2022-12-07T04:12:00;96250.53;;;-0.19;100.00
32933;BME280;19444;50.518;10.870;2022-12-07T04:14:57;96257.09;;;-0.22;100.00
32933;BME280;19444;50.518;10.870;2022-12-07T04:17:54;96256.56;;;-0.24;100.00
32933;BME280;19444;50.518;10.870;2022-12-07T04:20:51;96251.84;;;-0.22;100.00
32933;BME280;19444;50.518;10.870;2022-12-07T04:23:48;96256.84;;;-0.20;100.00
32933;BME280;19444;50.518;10.870;2022-12-07T04:26:45;96252.09;;;-0.23;100.00
32933;BME280;19444;50.518;10.870;2022-12-07T04:29:43;96242.22;;;-0.33;100.00
32933;BME280;19444;50.518;10.870;2022-12-07T04:32:40;96246.53;;;-0.27;100.00
32933;BME280;19444;50.518;10.870;2022-12-07T04:35:36;96247.53;;;-0.28;100.00
32933;BME280;19444;50.518;10.870;2022-12-07T04:38:33;96249.94;;;-0.26;100.00
32933;BME280;19444;50.518;10.870;2022-12-07T04:41:30;96242.34;;;-0.23;100.00
32933;BME280;19444;50.518;10.870;2022-12-07T04:44:28;96237.44;;;-0.14;100.00
32933;BME280;19444;50.518;10.870;2022-12-07T04:47:25;96233.16;;;-0.20;100.00
32933;BME280;19444;50.518;10.870;2022-12-07T04:50:22;96236.03;;;-0.22;100.00
32933;BME280;19444;50.518;10.870;2022-12-07T04:53:19;96229.28;;;-0.13;100.00
32933;BME280;19444;50.518;10.870;2022-12-07T04:56:17;96231.88;;;-0.18;100.00
32933;BME280;19444;50.518;10.870;2022-12-07T04:59:16;96231.94;;;-0.13;100.00
32933;BME280;19444;50.518;10.870;2022-12-07T05:02:13;96218.03;;;-0.08;100.00
32933;BME280;19444;50.518;10.870;2022-12-07T05:05:10;96220.97;;;-0.05;100.00
32933;BME280;19444;50.518;10.870;2022-12-07T05:08:07;96233.16;;;0.02;100.00
32933;BME280;19444;50.518;10.870;2022-12-07T05:11:05;96222.03;;;-0.01;100.00
32933;BME280;19444;50.518;10.870;2022-12-07T05:14:18;96231.50;;;-0.05;100.00
32933;BME280;19444;50.518;10.870;2022-12-07T05:17:16;96218.31;;;-0.05;100.00
32933;BME280;19444;50.518;10.870;2022-12-07T05:20:13;96230.34;;;-0.14;100.00
32933;BME280;19444;50.518;10.870;2022-12-07T05:23:10;96224.41;;;-0.04;100.00
32933;BME280;19444;50.518;10.870;2022-12-07T05:26:07;96214.91;;;-0.05;100.00
32933;BME280;19444;50.518;10.870;2022-12-07T05:29:04;96220.09;;;-0.10;100.00
32933;BME280;19444;50.518;10.870;2022-12-07T05:32:02;96226.97;;;-0.09;100.00
32933;BME280;19444;50.518;10.870;2022-12-07T05:34:59;96231.13;;;-0.13;100.00
32933;BME280;19444;50.518;10.870;2022-12-07T05:37:56;96226.97;;;-0.09;100.00
32933;BME280;19444;50.518;10.870;2022-12-07T05:40:53;96221.47;;;-0.08;100.00
32933;BME280;19444;50.518;10.870;2022-12-07T05:43:50;96223.53;;;-0.10;100.00
32933;BME280;19444;50.518;10.870;2022-12-07T05:46:47;96223.31;;;-0.08;100.00
32933;BME280;19444;50.518;10.870;2022-12-07T05:49:44;96239.34;;;-0.10;100.00
32933;BME280;19444;50.518;10.870;2022-12-07T05:52:41;96223.25;;;-0.13;100.00
32933;BME280;19444;50.518;10.870;2022-12-07T05:55:38;96227.47;;;-0.12;100.00
32933;BME280;19444;50.518;10.870;2022-12-07T05:58:35;96224.56;;;-0.11;100.00
32933;BME280;19444;50.518;10.870;2022-12-07T06:02:09;96216.13;;;-0.13;100.00
32933;BME280;19444;50.518;10.870;2022-12-07T06:05:07;96219.63;;;-0.07;100.00
32933;BME280;19444;50.518;10.870;2022-12-07T06:08:04;96202.22;;;-0.08;100.00
32933;BME280;19444;50.518;10.870;2022-12-07T06:11:02;96208.31;;;-0.08;100.00
32933;BME280;19444;50.518;10.870;2022-12-07T06:14:17;96203.03;;;-0.08;100.00
32933;BME280;19444;50.518;10.870;2022-12-07T06:17:15;96213.25;;;-0.11;100.00
32933;BME280;19444;50.518;10.870;2022-12-07T06:20:12;96210.94;;;-0.08;100.00
32933;BME280;19444;50.518;10.870;2022-12-07T06:23:10;96210.72;;;-0.01;100.00
32933;BME280;19444;50.518;10.870;2022-12-07T06:26:07;96207.78;;;-0.05;100.00
32933;BME280;19444;50.518;10.870;2022-12-07T06:29:04;96215.69;;;-0.05;100.00
32933;BME280;19444;50.518;10.870;2022-12-07T06:32:01;96215.63;;;-0.10;100.00
32933;BME280;19444;50.518;10.870;2022-12-07T06:34:59;96217.16;;;-0.14;100.00
32933;BME280;19444;50.518;10.870;2022-12-07T06:37:56;96223.53;;;-0.10;100.00
32933;BME280;19444;50.518;10.870;2022-12-07T06:40:55;96236.91;;;-0.16;100.00
32933;BME280;19444;50.518;10.870;2022-12-07T06:43:52;96221.16;;;-0.11;100.00
32933;BME280;19444;50.518;10.870;2022-12-07T06:46:52;96218.59;;;-0.06;100.00
32933;BME280;19444;50.518;10.870;2022-12-07T06:50:10;96221.16;;;-0.11;100.00
32933;BME280;19444;50.518;10.870;2022-12-07T06:53:08;96219.56;;;-0.12;100.00
32933;BME280;19444;50.518;10.870;2022-12-07T06:56:06;96235.09;;;-0.11;100.00
32933;BME280;19444;50.518;10.870;2022-12-07T06:59:04;96238.84;;;-0.07;100.00
32933;BME280;19444;50.518;10.870;2022-12-07T07:02:02;96234.69;;;-0.03;100.00
32933;BME280;19444;50.518;10.870;2022-12-07T07:04:59;96228.69;;;0.02;100.00
32933;BME280;19444;50.518;10.870;2022-12-07T07:07:56;96227.53;;;-0.07;100.00
32933;BME280;19444;50.518;10.870;2022-12-07T07:11:13;96238.09;;;-0.02;100.00
32933;BME280;19444;50.518;10.870;2022-12-07T07:14:10;96236.03;;;0.00;100.00
32933;BME280;19444;50.518;10.870;2022-12-07T07:17:07;96238.69;;;0.00;100.00
32933;BME280;19444;50.518;10.870;2022-12-07T07:20:05;96237.13;;;0.04;100.00
32933;BME280;19444;50.518;10.870;2022-12-07T07:23:02;96223.06;;;-0.07;100.00
32933;BME280;19444;50.518;10.870;2022-12-07T07:25:59;96232.84;;;-0.02;100.00
32933;BME280;19444;50.518;10.870;2022-12-07T07:28:56;96236.03;;;0.00;100.00
32933;BME280;19444;50.518;10.870;2022-12-07T07:31:53;96235.22;;;-0.01;100.00
32933;BME280;19444;50.518;10.870;2022-12-07T07:34:50;96254.47;;;0.00;100.00
32933;BME280;19444;50.518;10.870;2022-12-07T07:37:47;96236.44;;;0.14;100.00
32933;BME280;19444;50.518;10.870;2022-12-07T07:40:44;96236.44;;;0.14;100.00
32933;BME280;19444;50.518;10.870;2022-12-07T07:43:40;96240.66;;;0.15;100.00
32933;BME280;19444;50.518;10.870;2022-12-07T07:46:37;96243.66;;;0.23;100.00
32933;BME280;19444;50.518;10.870;2022-12-07T07:49:34;96250.22;;;0.21;100.00
32933;BME280;19444;50.518;10.870;2022-12-07T07:52:31;96257.81;;;0.17;100.00
32933;BME280;19444;50.518;10.870;2022-12-07T07:55:28;96248.88;;;0.18;100.00
32933;BME280;19444;50.518;10.870;2022-12-07T07:58:27;96251.81;;;0.22;100.00
32933;BME280;19444;50.518;10.870;2022-12-07T08:01:24;96252.25;;;0.14;100.00
32933;BME280;19444;50.518;10.870;2022-12-07T08:04:21;96244.06;;;0.10;100.00
32933;BME280;19444;50.518;10.870;2022-12-07T08:07:18;96245.00;;;0.26;100.00
32933;BME280;19444;50.518;10.870;2022-12-07T08:10:15;96243.41;;;0.25;100.00
32933;BME280;19444;50.518;10.870;2022-12-07T08:13:13;96259.44;;;0.18;100.00
32933;BME280;19444;50.518;10.870;2022-12-07T08:16:11;96254.34;;;0.12;100.00
32933;BME280;19444;50.518;10.870;2022-12-07T08:19:08;96257.78;;;0.12;100.00
32933;BME280;19444;50.518;10.870;2022-12-07T08:22:05;96262.78;;;0.14;100.00
32933;BME280;19444;50.518;10.870;2022-12-07T08:25:02;96264.69;;;0.18;100.00
32933;BME280;19444;50.518;10.870;2022-12-07T08:27:59;96258.75;;;0.28;100.00
32933;BME280;19444;50.518;10.870;2022-12-07T08:31:05;96266.50;;;0.18;100.00
32933;BME280;19444;50.518;10.870;2022-12-07T08:34:03;96261.06;;;0.24;100.00
32933;BME280;19444;50.518;10.870;2022-12-07T08:37:00;96260.25;;;0.24;100.00
32933;BME280;19444;50.518;10.870;2022-12-07T08:39:57;96266.06;;;0.26;100.00
32933;BME280;19444;50.518;10.870;2022-12-07T08:42:54;96266.94;;;0.32;100.00
32933;BME280;19444;50.518;10.870;2022-12-07T08:46:19;96266.88;;;0.26;100.00
32933;BME280;19444;50.518;10.870;2022-12-07T08:49:37;96270.66;;;0.36;100.00
32933;BME280;19444;50.518;10.870;2022-12-07T08:52:35;96268.09;;;0.41;100.00
32933;BME280;19444;50.518;10.870;2022-12-07T08:55:33;96271.41;;;0.31;100.00
32933;BME280;19444;50.518;10.870;2022-12-07T08:58:33;96274.56;;;0.28;100.00
32933;BME280;19444;50.518;10.870;2022-12-07T09:01:30;96276.94;;;0.30;100.00
32933;BME280;19444;50.518;10.870;2022-12-07T09:04:27;96276.50;;;0.38;100.00
32933;BME280;19444;50.518;10.870;2022-12-07T09:07:25;96275.44;;;0.39;100.00
32933;BME280;19444;50.518;10.870;2022-12-07T09:10:23;96275.13;;;0.35;100.00
32933;BME280;19444;50.518;10.870;2022-12-07T09:13:20;96284.34;;;0.33;100.00
32933;BME280;19444;50.518;10.870;2022-12-07T09:16:17;96273.91;;;0.43;100.00
32933;BME280;19444;50.518;10.870;2022-12-07T09:19:14;96278.13;;;0.44;100.00
32933;BME280;19444;50.518;10.870;2022-12-07T09:22:11;96275.13;;;0.35;100.00
32933;BME280;19444;50.518;10.870;2022-12-07T09:25:08;96273.59;;;0.39;100.00
32933;BME280;19444;50.518;10.870;2022-12-07T09:28:05;96270.53;;;0.47;100.00
32933;BME280;19444;50.518;10.870;2022-12-07T09:31:03;96273.81;;;0.60;100.00
32933;BME280;19444;50.518;10.870;2022-12-07T09:34:20;96274.31;;;0.56;100.00
32933;BME280;19444;50.518;10.870;2022-12-07T09:37:18;96272.22;;;0.59;100.00
32933;BME280;19444;50.518;10.870;2022-12-07T09:40:16;96270.19;;;0.66;100.00
32933;BME280;19444;50.518;10.870;2022-12-07T09:43:22;96263.00;;;0.61;100.00
32933;BME280;19444;50.518;10.870;2022-12-07T09:46:21;96268.53;;;0.60;100.00
32933;BME280;19444;50.518;10.870;2022-12-07T09:49:21;96260.63;;;0.60;100.00
32933;BME280;19444;50.518;10.870;2022-12-07T09:52:28;96257.13;;;0.54;100.00
32933;BME280;19444;50.518;10.870;2022-12-07T09:55:34;96261.31;;;0.50;100.00
32933;BME280;19444;50.518;10.870;2022-12-07T09:58:33;96267.47;;;0.34;100.00
32933;BME280;19444;50.518;10.870;2022-12-07T10:01:33;96260.81;;;0.26;100.00
32933;BME280;19444;50.518;10.870;2022-12-07T10:04:31;96248.66;;;0.47;100.00
32933;BME280;19444;50.518;10.870;2022-12-07T10:07:28;96245.91;;;0.37;100.00
32933;BME280;19444;50.518;10.870;2022-12-07T10:10:34;96247.28;;;0.44;100.00
32933;BME280;19444;50.518;10.870;2022-12-07T10:13:48;96240.94;;;0.40;100.00
32933;BME280;19444;50.518;10.870;2022-12-07T10:16:45;96241.66;;;0.36;100.00
32933;BME280;19444;50.518;10.870;2022-12-07T10:19:43;96247.53;;;0.43;100.00
32933;BME280;19444;50.518;10.870;2022-12-07T10:22:58;96242.81;;;0.45;100.00
32933;BME280;19444;50.518;10.870;2022-12-07T10:25:56;96244.78;;;0.60;100.00
32933;BME280;19444;50.518;10.870;2022-12-07T10:28:53;96233.81;;;0.73;100.00
32933;BME280;19444;50.518;10.870;2022-12-07T10:35:26;96229.81;;;0.65;100.00
32933;BME280;19444;50.518;10.870;2022-12-07T10:38:25;96221.09;;;0.97;100.00
32933;BME280;19444;50.518;10.870;2022-12-07T10:41:23;96226.66;;;1.00;100.00
32933;BME280;19444;50.518;10.870;2022-12-07T10:44:26;96215.88;;;1.07;100.00
32933;BME280;19444;50.518;10.870;2022-12-07T10:51:05;96225.78;;;0.90;100.00
32933;BME280;19444;50.518;10.870;2022-12-07T11:00:51;96221.69;;;1.04;100.00
32933;BME280;19444;50.518;10.870;2022-12-07T11:07:21;96224.50;;;0.92;100.00
32933;BME280;19444;50.518;10.870;2022-12-07T11:16:56;96225.03;;;0.94;100.00
32933;BME280;19444;50.518;10.870;2022-12-07T11:20:12;96219.91;;;1.14;100.00
32933;BME280;19444;50.518;10.870;2022-12-07T11:30:20;96212.19;;;1.08;100.00
32933;BME280;19444;50.518;10.870;2022-12-07T11:33:39;96202.50;;;1.19;100.00
32933;BME280;19444;50.518;10.870;2022-12-07T11:36:42;96191.91;;;1.13;100.00
32933;BME280;19444;50.518;10.870;2022-12-07T11:40:08;96193.28;;;1.21;100.00
32933;BME280;19444;50.518;10.870;2022-12-07T11:43:33;96184.13;;;1.34;100.00
32933;BME280;19444;50.518;10.870;2022-12-07T11:47:16;96183.78;;;1.20;100.00
32933;BME280;19444;50.518;10.870;2022-12-07T11:50:41;96186.78;;;0.97;100.00
32933;BME280;19444;50.518;10.870;2022-12-07T11:54:03;96183.09;;;0.98;100.00
32933;BME280;19444;50.518;10.870;2022-12-07T11:57:12;96188.75;;;1.11;100.00
32933;BME280;19444;50.518;10.870;2022-12-07T12:00:17;96175.72;;;0.95;100.00
32933;BME280;19444;50.518;10.870;2022-12-07T12:03:25;96179.75;;;1.07;100.00
32933;BME280;19444;50.518;10.870;2022-12-07T12:06:27;96176.88;;;1.14;100.00
32933;BME280;19444;50.518;10.870;2022-12-07T12:09:35;96176.75;;;1.41;100.00
32933;BME280;19444;50.518;10.870;2022-12-07T12:13:07;96173.41;;;1.61;100.00
32933;BME280;19444;50.518;10.870;2022-12-07T12:20:23;96165.41;;;1.46;100.00
32933;BME280;19444;50.518;10.870;2022-12-07T12:23:39;96178.13;;;1.49;100.00
32933;BME280;19444;50.518;10.870;2022-12-07T12:26:38;96158.25;;;1.36;100.00
32933;BME280;19444;50.518;10.870;2022-12-07T12:29:39;96162.19;;;1.33;100.00
32933;BME280;19444;50.518;10.870;2022-12-07T12:32:42;96156.13;;;1.33;100.00
32933;BME280;19444;50.518;10.870;2022-12-07T12:35:41;96162.13;;;1.18;100.00
32933;BME280;19444;50.518;10.870;2022-12-07T12:38:52;96151.63;;;1.28;100.00
32933;BME280;19444;50.518;10.870;2022-12-07T12:42:18;96153.97;;;1.25;100.00
32933;BME280;19444;50.518;10.870;2022-12-07T12:48:35;96154.34;;;1.49;100.00
32933;BME280;19444;50.518;10.870;2022-12-07T12:51:39;96159.44;;;1.65;100.00
32933;BME280;19444;50.518;10.870;2022-12-07T12:54:37;96153.09;;;1.71;100.00
32933;BME280;19444;50.518;10.870;2022-12-07T12:57:35;96151.50;;;1.60;100.00
32933;BME280;19444;50.518;10.870;2022-12-07T13:00:32;96148.50;;;1.41;100.00
32933;BME280;19444;50.518;10.870;2022-12-07T13:03:31;96148.25;;;1.43;100.00
32933;BME280;19444;50.518;10.870;2022-12-07T13:06:35;96140.88;;;1.45;100.00
32933;BME280;19444;50.518;10.870;2022-12-07T13:09:35;96141.63;;;1.35;100.00
32933;BME280;19444;50.518;10.870;2022-12-07T13:12:32;96126.59;;;1.41;100.00
32933;BME280;19444;50.518;10.870;2022-12-07T13:18:48;96129.50;;;1.39;100.00
32933;BME280;19444;50.518;10.870;2022-12-07T13:21:45;96147.94;;;1.29;100.00
32933;BME280;19444;50.518;10.870;2022-12-07T13:24:42;96150.53;;;1.19;100.00
32933;BME280;19444;50.518;10.870;2022-12-07T13:27:41;96157.31;;;1.05;100.00
32933;BME280;19444;50.518;10.870;2022-12-07T13:33:51;96141.78;;;0.71;100.00
32933;BME280;19444;50.518;10.870;2022-12-07T13:36:47;96142.75;;;0.60;100.00
32933;BME280;19444;50.518;10.870;2022-12-07T13:39:59;96128.66;;;0.81;100.00
32933;BME280;19444;50.518;10.870;2022-12-07T13:43:04;96135.78;;;0.81;100.00
32933;BME280;19444;50.518;10.870;2022-12-07T13:46:11;96130.97;;;0.73;100.00
32933;BME280;19444;50.518;10.870;2022-12-07T13:49:38;96130.47;;;0.76;100.00
32933;BME280;19444;50.518;10.870;2022-12-07T13:52:44;96139.13;;;0.66;100.00
32933;BME280;19444;50.518;10.870;2022-12-07T13:55:46;96136.34;;;0.83;100.00
32933;BME280;19444;50.518;10.870;2022-12-07T13:58:50;96134.72;;;0.82;100.00
32933;BME280;19444;50.518;10.870;2022-12-07T14:01:49;96132.03;;;0.72;100.00
32933;BME280;19444;50.518;10.870;2022-12-07T14:04:50;96132.28;;;0.70;100.00
32933;BME280;19444;50.518;10.870;2022-12-07T14:08:03;96128.06;;;0.69;100.00
32933;BME280;19444;50.518;10.870;2022-12-07T14:11:01;96122.25;;;0.67;100.00
32933;BME280;19444;50.518;10.870;2022-12-07T14:14:00;96118.69;;;0.51;100.00
32933;BME280;19444;50.518;10.870;2022-12-07T14:17:15;96117.44;;;0.59;100.00
32933;BME280;19444;50.518;10.870;2022-12-07T14:20:45;96116.31;;;0.50;100.00
32933;BME280;19444;50.518;10.870;2022-12-07T14:23:42;96113.69;;;0.50;100.00
32933;BME280;19444;50.518;10.870;2022-12-07T14:26:39;96116.78;;;0.42;100.00
32933;BME280;19444;50.518;10.870;2022-12-07T14:29:37;96111.69;;;0.67;100.00
32933;BME280;19444;50.518;10.870;2022-12-07T14:32:37;96116.66;;;0.59;100.00
32933;BME280;19444;50.518;10.870;2022-12-07T14:35:34;96119.53;;;0.57;100.00
32933;BME280;19444;50.518;10.870;2022-12-07T14:38:31;96111.97;;;0.71;100.00
32933;BME280;19444;50.518;10.870;2022-12-07T14:41:27;96110.44;;;0.75;100.00
32933;BME280;19444;50.518;10.870;2022-12-07T14:44:43;96097.78;;;0.82;100.00
32933;BME280;19444;50.518;10.870;2022-12-07T14:47:40;96106.22;;;0.79;100.00
32933;BME280;19444;50.518;10.870;2022-12-07T14:50:58;96102.53;;;0.75;100.00
32933;BME280;19444;50.518;10.870;2022-12-07T14:54:19;96104.59;;;0.73;100.00
32933;BME280;19444;50.518;10.870;2022-12-07T14:57:17;96100.38;;;0.72;100.00
32933;BME280;19444;50.518;10.870;2022-12-07T15:00:16;96104.38;;;0.74;100.00
32933;BME280;19444;50.518;10.870;2022-12-07T15:03:14;96103.56;;;0.74;100.00
32933;BME280;19444;50.518;10.870;2022-12-07T15:06:15;96103.00;;;0.72;100.00
32933;BME280;19444;50.518;10.870;2022-12-07T15:09:12;96105.97;;;0.75;100.00
32933;BME280;19444;50.518;10.870;2022-12-07T15:12:09;96108.81;;;0.69;100.00
32933;BME280;19444;50.518;10.870;2022-12-07T15:15:06;96105.38;;;0.68;100.00
32933;BME280;19444;50.518;10.870;2022-12-07T15:18:03;96105.66;;;0.72;100.00
32933;BME280;19444;50.518;10.870;2022-12-07T15:21:00;96100.69;;;0.80;100.00
32933;BME280;19444;50.518;10.870;2022-12-07T15:23:57;96103.78;;;0.67;100.00
32933;BME280;19444;50.518;10.870;2022-12-07T15:26:54;96109.81;;;0.63;100.00
32933;BME280;19444;50.518;10.870;2022-12-07T15:29:51;96106.63;;;0.61;100.00
32933;BME280;19444;50.518;10.870;2022-12-07T15:32:52;96109.53;;;0.59;100.00
32933;BME280;19444;50.518;10.870;2022-12-07T15:35:49;96110.06;;;0.56;100.00
32933;BME280;19444;50.518;10.870;2022-12-07T15:38:46;96105.34;;;0.63;100.00
32933;BME280;19444;50.518;10.870;2022-12-07T15:42:03;96103.19;;;0.55;100.00
32933;BME280;19444;50.518;10.870;2022-12-07T15:45:00;96102.69;;;0.58;100.00
32933;BME280;19444;50.518;10.870;2022-12-07T15:48:01;96103.19;;;0.55;100.00
32933;BME280;19444;50.518;10.870;2022-12-07T15:51:18;96098.72;;;0.55;100.00
32933;BME280;19444;50.518;10.870;2022-12-07T15:54:23;96097.09;;;0.54;100.00
32933;BME280;19444;50.518;10.870;2022-12-07T15:57:20;96092.09;;;0.53;100.00
32933;BME280;19444;50.518;10.870;2022-12-07T16:00:21;96092.84;;;0.48;100.00
32933;BME280;19444;50.518;10.870;2022-12-07T16:03:18;96092.84;;;0.48;100.00
32933;BME280;19444;50.518;10.870;2022-12-07T16:06:17;96088.91;;;0.51;100.00
32933;BME280;19444;50.518;10.870;2022-12-07T16:09:15;96095.50;;;0.53;100.00
32933;BME280;19444;50.518;10.870;2022-12-07T16:12:13;96101.03;;;0.47;100.00
32933;BME280;19444;50.518;10.870;2022-12-07T16:15:10;96095.75;;;0.47;100.00
32933;BME280;19444;50.518;10.870;2022-12-07T16:18:07;96101.28;;;0.50;100.00
32933;BME280;19444;50.518;10.870;2022-12-07T16:21:04;96103.94;;;0.50;100.00
32933;BME280;19444;50.518;10.870;2022-12-07T16:24:04;96105.53;;;0.51;100.00
32933;BME280;19444;50.518;10.870;2022-12-07T16:27:01;96106.75;;;0.39;100.00
32933;BME280;19444;50.518;10.870;2022-12-07T16:29:58;96106.25;;;0.42;100.00
32933;BME280;19444;50.518;10.870;2022-12-07T16:32:55;96113.63;;;0.45;100.00
32933;BME280;19444;50.518;10.870;2022-12-07T16:35:58;96112.91;;;0.54;100.00
32933;BME280;19444;50.518;10.870;2022-12-07T16:38:55;96110.31;;;0.60;100.00
32933;BME280;19444;50.518;10.870;2022-12-07T16:41:54;96106.03;;;0.48;100.00
32933;BME280;19444;50.518;10.870;2022-12-07T16:44:51;96106.50;;;0.40;100.00
32933;BME280;19444;50.518;10.870;2022-12-07T16:47:48;96105.53;;;0.51;100.00